Canso, Canada
Current Conditions -  °F | °C
As of 10:37 PM on Sunday 25 Jan 2015 (Local Time) from CYPD Reporting Station
Overcast Overcast  
Wind Chill:   Ceiling: 4300
Heat Index: 23°   Visibility: 9mi
Dew Point: 16°   Wind: 18mph
Humidity: 74%   Direction: 280°W
Pressure: 29.48"   Gusts: 33mph
Location:  45.34°N, 61°W
Report Text: CYPD 260237Z AUTO 28016G29KT 9SM FEW035 OVC043 M05/M09 A2948 RMK SLP990
Loading
Personal Weather Stations






























Interactive Weather Map New forecast layout! Learn more

10-Day Weather Forecast

Advertisements
Track Severe Weather on mobile